SCC: Watkins Glen: Practice two times

Pos Num Class ClsP Team Time Gap To 1st Speed --- --- ----- ---- ------------------------------ ---------- ------- ------- ------- 1. 41 GS 1 TRG 2:04.760 ...

Pos Num Class ClsP Team                                 Time     Gap  To 1st   Speed
--- --- ----- ---- ------------------------------ ---------- ------- ------- -------
 1.  41 GS    1    TRG                              2:04.760                  98.108
 2.  49 GS    2    Marcus Motorsports               2:06.048   1.288   1.288  97.106
 3.  38 GS    3    BGB Motorsports                  2:06.435   0.387   1.675  96.809
 4.  52 GS    4    Rehagen Racing                   2:06.671   0.236   1.911  96.628
 5.  59 GS    5    Rehagen Racing                   2:06.957   0.286   2.197  96.411
 6.  25 GS    6    Fiorano/C-MAX Racing             2:07.276   0.319   2.516  96.169
 7.  55 GS    7    Hyper Sport                      2:07.330   0.054   2.570  96.128
 8.   4 GS    8    Blackforest Motorsports          2:07.526   0.196   2.766  95.980
 9.  90 GS    9    Automatic Racing                 2:07.555   0.029   2.795  95.959
10.  39 GS    10   TRG                              2:07.587   0.032   2.827  95.935
11.  54 GS    11   Hyper Sport                      2:07.604   0.017   2.844  95.922
12.  40 GS    12   TRG                              2:07.619   0.015   2.859  95.910
13.  99 GS    13   Automatic Racing                 2:07.624   0.005   2.864  95.907
14.  97 GS    14   Turner Motorsport                2:07.702   0.078   2.942  95.848
15.  09 GS    15   Automatic Racing                 2:07.807   0.105   3.047  95.769
16.   5 GS    16   Blackforest Motorsports          2:07.807   0.000   3.047  95.769
17.  88 GS    17   Ranger Sports Racing             2:07.871   0.064   3.111  95.721
18.  26 GS    18   Fiorano/C-MAX Racing             2:08.054   0.183   3.294  95.585
19.  79 GS    19   Kinetic Motorsports              2:08.233   0.179   3.473  95.451
20.  96 GS    20   Turner Motorsport                2:08.482   0.249   3.722  95.266
21.  37 GS    21   JBS Racing                       2:08.684   0.202   3.924  95.117
22.  87 GS    22   Ranger Sports Racing             2:08.827   0.143   4.067  95.011
23.  43 GS    23   ASC Motorsports                  2:08.892   0.065   4.132  94.963
24.  07 GS    24   Cardiosport Racing               2:09.099   0.207   4.339  94.811
25.  46 GS    25   Fall-Line Motorsports            2:09.123   0.024   4.363  94.793
26. 137 GS    26   JBS Motorsports                  2:09.387   0.264   4.627  94.600
27.  83 GS    27   BGB Motorsports                  2:09.473   0.086   4.713  94.537
28.  91 GS    28   Automatic Racing                 2:09.674   0.201   4.914  94.391
29. 154 GS    29   Rehagen Racing                   2:09.999   0.325   5.239  94.155
30.  28 GS    30   Fall-Line Motorsports            2:10.465   0.466   5.705  93.818
31.  47 GS    31   TF Racing                        2:10.488   0.023   5.728  93.802
32.  17 GS    32   Team Centurion                   2:10.624   0.136   5.864  93.704
33.   2 GS    33   Blackforest Motorsports          2:11.996   1.372   7.236  92.730
34.  22 ST    1    HART                             2:12.115   0.119   7.355  92.647
35.  89 GS    34   Ranger Sports Racing             2:12.238   0.123   7.478  92.560
36.  76 ST    2    Kensai Racing                    2:12.352   0.114   7.592  92.481
37.  21 GS    35   Bodymotion Racing                2:12.777   0.425   8.017  92.185
38.  30 GS    36   Fastmetal Motorsports            2:12.808   0.031   8.048  92.163
39.  86 ST    3    Classic BMW - Plano              2:12.884   0.076   8.124  92.110
40.  95 ST    4    Turner Motorsport                2:13.032   0.148   8.272  92.008
41. 127 ST    5    Fountain Motorsports             2:13.527   0.495   8.767  91.667
42.  75 ST    6    Kensai Racing                    2:13.679   0.152   8.919  91.563
43.  42 GS    37   TRG                              2:13.840   0.161   9.080  91.452
44. 126 ST    7    Fountain Motorsports             2:13.992   0.152   9.232  91.349
45.  29 ST    8    Bill Fenton Motorsports          2:14.015   0.023   9.255  91.333
46.  69 ST    9    SpeedSource                      2:14.085   0.070   9.325  91.285
47.  27 ST    10   Bill Fenton Motorsports          2:14.265   0.180   9.505  91.163
48. 174 ST    11   LRT Racing                       2:14.964   0.699  10.204  90.691
49.  74 ST    12   Kensai Racing                    2:16.774   1.810  12.014  89.491
50. 197 ST    13   RSR Motorsports                  2:16.879   0.105  12.119  89.422
51.  56 ST    14   BSI Racing                       2:16.922   0.043  12.162  89.394
52. 125 ST    15   Fountain Motorsports             2:17.066   0.144  12.306  89.300
53.  64 ST    16   T Giovanis Motorsport            2:18.469   1.403  13.709  88.395
54.  13 ST    17   SDS Performance Racing           2:18.899   0.430  14.139  88.122
55.  58 ST    18   BSI Racing                       2:19.062   0.163  14.302  88.018
56. 198 ST    19   RSR Motorsports                  2:19.459   0.397  14.699  87.768
57.  02 ST    20   Blackforest Motorsports          2:22.468   3.009  17.708  85.914
58.  73 ST    21   SDS Performance Group            2:25.697   3.229  20.937  84.010
59.  31 ST    22   i-MOTO Racing                    2:26.019   0.322  21.259  83.825
60.  82 GS    38   BRG/Group 88 Motorsports          No Time
61.  01 ST    23   Georgian Bay Motorsports          No Time
62.  53 ST    24   Predator Auto Sport               No Time

Be part of something big

Write a comment
Show comments
About this article
Series Grand-Am
Drivers Bill Fenton
Teams Kinetic Motorsports , Rehagen Racing , Turner Motorsport , Automatic Racing , LRT Racing , HART , Fall-Line Motorsports , Bodymotion Racing , SpeedSource